Oaks, PA (19456)

11:04 AM EDT on September 17, 2014 (GMT -0400)
Collegeville | Change Station
CLOSE
Current Station
Personal Weather Station
Location: Collegeville, PA
Elevation: 135 ft
Nearby Weather Stations

Elev 135 ft 40.18 °N, 75.45 °W | Updated 13 minutes ago

Clear
Clear
63.0 °F
Feels Like 63.0 °F
N
0.0
Wind Variable Wind from NW
Gusts 1.0 mph

Today
High -- | Low -- °F
--% Chance of Precip.
Yesterday
High -- | Low -- °F
Precip. -- in
6:44 AM 7:07 PM
Waning Crescent, 35% visible
Pressure 30.08 in
Visibility 10.0 miles
Clouds Clear
Dew Point 57 °F
Humidity 80%
Rainfall 0.00 in
Snow Depth Not available.
UV 6 out of 12
Pollen 3.60 out of 12
Air Quality Not available.
Flu Activity Not available.
METAR KPTW 171454Z AUTO 06005KT 10SM CLR 19/09 A3008 RMK AO2 SLP184 T01890089 50001

More Conditions Fewer Conditions

Pressure 30.08 in
Visibility 10.0 miles
Clouds Clear
Dew Point 57 °F
Humidity 80%
Rainfall 0.00 in
Snow Depth Not available.
UV 6 out of 12
Pollen 3.60 out of 12
Air Quality Not available.
Flu Activity Not available.
METAR KPTW 171454Z AUTO 06005KT 10SM CLR 19/09 A3008 RMK AO2 SLP184 T01890089 50001

More Conditions Fewer Conditions

10-Day Weather Forecast

Almanac

Astronomy

Sep. 17, 2014 Rise Set
Actual Time 6:44 AM EDT 7:07 PM EDT
Civil Twilight 6:17 AM EDT 7:34 PM EDT
Nautical Twilight 5:45 AM EDT 8:06 PM EDT
Astronomical Twilight 5:12 AM EDT 8:38 PM EDT
Moon 12:42 AM EDT 3:15 PM EDT
Length of Visible Light 13h 17m
Length of Day
12h 22m
Tomorrow will be 2m 37s shorter.
Waning Crescent, 35% of the Moon is Illuminated
Today
Waning Crescent
Sep 24
New
Oct 1
First Quarter
Oct 8
Full
Oct 15
Last Quarter

Today's Extremes

State Highs State Lows

Community

WunderPhotos

Upload Photos

1,754,064 photos uploaded!

WunderBlogs® & News

Nearby

Snow Depth

Station Depth Elevation
No new snow has been reported.

Earthquake Activity

City Distance Mag. Time & Date
No recent earthquake activity has been reported nearby.
Minimum magnitude displayed is 2.5.

Coastal Water Temperatures

Place Temperature
Ship John Shoal, NJ 73.0 °F
Cape May, NJ 75.0 °F
Reedy Point, DE 73.9 °F
Delaware City, DE 73.9 °F
Marcus Hook, PA 75.0 °F

Nearby Weather Stations